createdAt,value
2022-10-12T00:03:37.110Z,18.00
2022-10-12T00:10:42.151Z,20.35
2022-10-12T00:17:43.697Z,23.77
2022-10-12T00:24:45.239Z,16.52
2022-10-12T00:31:46.786Z,21.00
2022-10-12T00:38:48.809Z,24.52
2022-10-12T00:45:50.381Z,21.48
2022-10-12T00:53:12.817Z,18.23
2022-10-12T01:00:14.786Z,21.27
2022-10-12T01:07:16.350Z,18.75
2022-10-12T01:14:17.884Z,19.17
2022-10-12T01:21:20.814Z,19.27
2022-10-12T01:28:44.045Z,21.98
2022-10-12T01:35:51.370Z,18.98
2022-10-12T01:42:52.940Z,19.67
2022-10-12T01:49:54.502Z,21.77
2022-10-12T01:57:31.214Z,16.02
2022-10-12T02:04:47.845Z,21.63
2022-10-12T02:11:50.203Z,20.65
2022-10-12T02:18:53.043Z,18.45
2022-10-12T02:25:54.628Z,18.85
2022-10-12T02:33:03.630Z,21.02
2022-10-12T02:40:20.011Z,21.48
2022-10-12T02:47:22.376Z,22.15
2022-10-12T02:54:23.990Z,16.60
2022-10-12T03:01:25.610Z,25.65
2022-10-12T03:08:27.173Z,16.98
2022-10-12T03:15:28.773Z,18.08
2022-10-12T03:22:30.660Z,19.95
2022-10-12T03:29:32.204Z,20.05
2022-10-12T03:36:33.795Z,15.00
2022-10-12T03:43:35.338Z,16.05
2022-10-12T03:50:36.955Z,17.15
2022-10-12T03:57:38.745Z,16.85
2022-10-12T04:04:40.520Z,22.67
2022-10-12T04:11:42.097Z,17.63
2022-10-12T04:18:43.727Z,18.67
2022-10-12T04:25:45.249Z,22.15
2022-10-12T04:32:46.789Z,21.73
2022-10-12T04:39:48.362Z,15.55
2022-10-12T04:46:50.159Z,19.20
2022-10-12T04:53:51.780Z,16.38
2022-10-12T05:00:53.302Z,13.75
2022-10-12T05:07:55.021Z,16.20
2022-10-12T05:14:56.615Z,17.15
2022-10-12T05:21:58.174Z,13.88
2022-10-12T05:28:59.825Z,15.55
2022-10-12T05:36:01.389Z,19.58
2022-10-12T05:43:02.956Z,15.93
2022-10-12T05:50:04.844Z,10.30
2022-10-12T05:57:06.423Z,16.25
2022-10-12T06:04:08.007Z,12.43
2022-10-12T06:11:09.567Z,13.38
2022-10-12T06:18:11.112Z,18.52
2022-10-12T06:25:12.681Z,15.50
2022-10-12T06:32:14.320Z,19.88
2022-10-12T06:39:15.879Z,15.82
2022-10-12T06:46:17.442Z,15.85
2022-10-12T06:53:19.441Z,19.23
2022-10-12T07:00:21.061Z,16.48
2022-10-12T07:07:22.621Z,16.13
2022-10-12T07:14:24.201Z,19.00
2022-10-12T07:21:25.893Z,15.07
2022-10-12T07:28:28.644Z,13.82
2022-10-12T07:35:30.377Z,14.13
2022-10-12T07:42:31.961Z,18.88
2022-10-12T07:49:33.548Z,12.18
2022-10-12T07:56:35.186Z,16.75
2022-10-12T08:03:36.999Z,12.65
2022-10-12T08:10:38.543Z,12.50
2022-10-12T08:17:40.551Z,12.80
2022-10-12T08:24:42.463Z,13.73
2022-10-12T08:31:44.040Z,14.25
2022-10-12T08:38:54.008Z,13.48
2022-10-12T08:53:05.183Z,10.85
2022-10-12T09:00:09.916Z,14.70
2022-10-12T09:07:31.397Z,30.20
2022-10-12T09:14:34.143Z,14.05
2022-10-12T09:21:35.755Z,12.48
2022-10-12T09:28:45.283Z,11.32
2022-10-12T09:35:47.345Z,10.77
2022-10-12T09:42:48.927Z,12.27
2022-10-12T09:49:51.969Z,16.83
2022-10-12T09:56:55.171Z,11.82
2022-10-12T10:04:23.930Z,10.63
2022-10-12T10:11:27.227Z,11.80
2022-10-12T10:18:34.031Z,12.23
2022-10-12T10:25:35.637Z,11.98
2022-10-12T10:32:37.189Z,10.23
2022-10-12T10:39:46.534Z,10.05
2022-10-12T10:46:48.087Z,8.52
2022-10-12T10:53:51.278Z,8.35
2022-10-12T11:00:53.518Z,8.75
2022-10-12T11:07:56.645Z,8.65
2022-10-12T11:15:35.738Z,9.45
2022-10-12T11:22:49.169Z,8.77
2022-10-12T11:30:08.501Z,5.05
2022-10-12T11:37:20.962Z,8.88
2022-10-12T11:44:41.348Z,8.88
2022-10-12T11:51:47.321Z,7.68
2022-10-12T11:59:00.417Z,11.88
2022-10-12T12:06:42.158Z,8.38
2022-10-12T12:13:43.724Z,8.63
2022-10-12T12:20:45.311Z,9.82
2022-10-12T12:27:47.846Z,9.32
2022-10-12T12:35:00.479Z,9.68
2022-10-12T12:42:11.939Z,6.88
2022-10-12T12:49:40.408Z,10.25
2022-10-12T12:56:45.121Z,9.50
2022-10-12T13:04:00.754Z,8.77
2022-10-12T13:11:02.291Z,11.55
2022-10-12T13:18:48.851Z,13.90
2022-10-12T13:25:56.955Z,10.77
2022-10-12T13:33:04.327Z,5.90
2022-10-12T13:40:06.339Z,8.65
2022-10-12T13:47:41.713Z,6.75
2022-10-12T13:54:46.091Z,5.93
2022-10-12T14:01:55.075Z,8.60
2022-10-12T14:09:06.189Z,8.40
2022-10-12T14:16:07.744Z,9.75
2022-10-12T14:23:15.943Z,8.00
2022-10-12T14:30:18.757Z,11.55
2022-10-12T14:37:24.033Z,7.82
2022-10-12T14:44:27.025Z,6.50
2022-10-12T14:51:28.815Z,7.63
2022-10-12T14:58:30.441Z,8.43
2022-10-12T15:05:32.828Z,8.25
2022-10-12T15:12:34.515Z,7.03
2022-10-12T15:19:36.144Z,9.00
2022-10-12T15:26:42.076Z,13.52
2022-10-12T15:33:43.966Z,8.32
2022-10-12T15:40:46.170Z,9.52
2022-10-12T15:47:48.133Z,9.50
2022-10-12T15:54:49.909Z,10.85
2022-10-12T16:01:51.453Z,9.52
2022-10-12T16:08:53.059Z,26.88
2022-10-12T16:15:54.595Z,10.75
2022-10-12T16:22:56.147Z,9.30
2022-10-12T16:29:57.840Z,9.70
2022-10-12T16:37:00.236Z,14.18
2022-10-12T16:44:01.905Z,14.35
2022-10-12T16:51:08.217Z,10.98
2022-10-12T16:58:09.788Z,11.60
2022-10-12T17:05:11.370Z,19.75
2022-10-12T17:12:13.206Z,12.30
2022-10-12T17:19:27.427Z,12.18
2022-10-12T17:26:29.127Z,19.90
2022-10-12T17:33:31.509Z,18.90
2022-10-12T17:40:33.051Z,12.48
2022-10-12T17:47:34.685Z,11.80
2022-10-12T17:54:36.814Z,15.77
2022-10-12T18:01:38.910Z,12.18
2022-10-12T18:08:40.536Z,13.38
2022-10-12T18:15:43.507Z,15.20
2022-10-12T18:22:45.095Z,11.05
2022-10-12T18:29:47.119Z,12.55
2022-10-12T18:36:48.752Z,12.10
2022-10-12T18:43:55.114Z,10.98
2022-10-12T18:50:57.483Z,14.82
2022-10-12T18:57:59.058Z,9.27
2022-10-12T19:05:00.603Z,8.95
2022-10-12T19:12:02.251Z,12.00
2022-10-12T19:19:06.107Z,10.35
2022-10-12T19:26:18.962Z,11.98
2022-10-12T19:33:20.924Z,14.65
2022-10-12T19:40:22.505Z,15.70
2022-10-12T19:47:24.138Z,9.70
2022-10-12T19:54:25.773Z,11.85
2022-10-12T20:01:37.137Z,11.95
2022-10-12T20:08:39.665Z,11.63
2022-10-12T20:15:41.278Z,13.15
2022-10-12T20:22:42.831Z,14.32
2022-10-12T20:29:44.509Z,14.88
2022-10-12T20:36:46.123Z,13.02
2022-10-12T20:43:47.732Z,13.07
2022-10-12T20:50:49.317Z,13.10
2022-10-12T20:57:50.880Z,11.30
2022-10-12T21:04:52.444Z,13.18
2022-10-12T21:11:54.128Z,11.52
2022-10-12T21:18:55.783Z,11.60
2022-10-12T21:25:57.414Z,10.07
2022-10-12T21:32:58.951Z,10.20
2022-10-12T21:40:00.543Z,13.52
2022-10-12T21:47:02.087Z,12.13
2022-10-12T21:54:04.786Z,12.70
2022-10-12T22:01:07.836Z,13.07
2022-10-12T22:08:09.700Z,12.23
2022-10-12T22:15:11.788Z,13.45
2022-10-12T22:22:13.344Z,15.68
2022-10-12T22:29:14.986Z,11.50
2022-10-12T22:36:16.788Z,12.55
2022-10-12T22:43:18.448Z,10.23
2022-10-12T22:50:20.051Z,11.80
2022-10-12T22:57:21.688Z,13.07
2022-10-12T23:04:23.249Z,12.30
2022-10-12T23:11:26.330Z,9.70
2022-10-12T23:18:28.075Z,12.30
2022-10-12T23:25:29.623Z,11.50
2022-10-12T23:32:31.417Z,13.20
2022-10-12T23:39:33.023Z,11.00
2022-10-12T23:46:34.593Z,10.68
2022-10-12T23:53:36.523Z,9.15
